CW3094 Weather Reports


Display with metric or nautical units.
time (UTC)temp
F
wind
direction
speed
MPH
gust
MPH
rain 1hr
in
rain 24hr
in
rain mn
in
humidity
%
barometer
mb
20170430183359 56 57 3.0 5.0 0.00 0.06 0.06 100 1023.3
20170430182401 56 39 1.0 3.0 0.00 0.06 0.06 100 1022.8
20170430181403 57 75 2.0 8.0 0.00 0.06 0.06 100 1022.7
20170430180400 57 72 2.0 6.0 0.00 0.06 0.06 100 1022.8
20170430175402 57 75 0.0 7.0 0.00 0.06 0.06 100 1022.9
20170430174402 57 46 2.0 6.0 0.00 0.06 0.06 100 1023.5
20170430173400 58 26 1.0 6.0 0.00 0.06 0.06 100 1023.6
20170430172403 57 63 3.0 5.0 0.05 0.06 0.06 100 1023.4
20170430171404 56 57 3.0 6.0 0.06 0.06 0.06 100 1023.5
20170430170400 53 69 2.0 3.0 0.06 0.06 0.06 100 1023.5
20170430165403 52 291 0.0 0.0 0.06 0.06 0.06 100 1024.1
20170430164404 52 291 0.0 0.0 0.06 0.06 0.06 100 1024.6
20170430163358 53 291 0.0 5.0 0.06 0.06 0.06 96 1025.1
20170430162401 59 310 3.0 6.0 0.01 0.01 0.01 47 1025.2
20170430161402 60 314 1.0 3.0 0.00 0.00 0.00 43 1024.1
20170430160357 61 82 1.0 5.0 0.00 0.00 0.00 42 1023.6
20170430155400 61 36 1.0 5.0 0.00 0.00 0.00 41 1023.8
20170430154401 61 40 3.0 5.0 0.00 0.00 0.00 42 1023.8
20170430153356 61 88 0.0 6.0 0.00 0.00 0.00 43 1023.9
20170430152400 61 72 3.0 7.0 0.00 0.00 0.00 42 1023.3
20170430151401 59 120 3.0 7.0 0.00 0.00 0.00 46 1023.6
20170430150357 59 58 3.0 9.0 0.00 0.00 0.00 44 1023.5
20170430145359 60 80 5.0 9.0 0.00 0.00 0.00 44 1023.3
20170430144401 60 70 3.0 9.0 0.00 0.00 0.00 43 1023.5
20170430143359 60 86 4.0 9.0 0.00 0.00 0.00 46 1023.5
20170430142403 58 122 6.0 10.0 0.00 0.00 0.00 49 1023.4
20170430141402 58 96 4.0 9.0 0.00 0.00 0.00 47 1023.3
20170430140355 58 123 4.0 9.0 0.00 0.00 0.00 48 1023.3
20170430135400 58 79 3.0 8.0 0.00 0.00 0.00 49 1023.4
20170430134401 56 55 5.0 10.0 0.00 0.00 0.00 50 1023.5
20170430133357 54 100 4.0 9.0 0.00 0.00 0.00 57 1023.6
20170430132359 53 55 2.0 10.0 0.00 0.00 0.00 57 1023.6
20170430131401 53 82 5.0 10.0 0.00 0.00 0.00 62 1023.6
20170430130356 52 86 6.0 9.0 0.00 0.00 0.00 64 1024.0
20170430125358 52 197 2.0 10.0 0.00 0.00 0.00 67 1024.1
20170430124401 51 105 5.0 10.0 0.00 0.00 0.00 69 1023.9
20170430123358 51 25 2.0 7.0 0.00 0.00 0.00 69 1024.0
20170430122359 51 26 3.0 12.0 0.00 0.00 0.00 69 1023.8
20170430121402 50 52 5.0 9.0 0.00 0.00 0.00 71 1023.3
20170430120358 50 58 3.0 10.0 0.00 0.00 0.00 72 1023.2
20170430115402 49 46 3.0 9.0 0.00 0.00 0.00 72 1023.4
20170430114405 49 40 3.0 8.0 0.00 0.00 0.00 75 1023.3
20170430113401 48 100 3.0 8.0 0.00 0.00 0.00 76 1023.1
20170430112401 47 59 3.0 7.0 0.00 0.00 0.00 78 1023.1
20170430111434 47 37 1.0 2.0 0.00 0.00 0.00 77 1023.2
20170430110358 47 140 0.0 5.0 0.00 0.00 0.00 77 1023.2
20170430105359 46 11 1.0 7.0 0.00 0.00 0.00 77 1023.1
20170430104402 46 30 1.0 5.0 0.00 0.00 0.00 77 1023.1
20170430103358 45 320 2.0 6.0 0.00 0.00 0.00 80 1023.0
20170430102401 45 293 2.0 6.0 0.00 0.00 0.00 80 1023.0
20170430101402 45 304 2.0 6.0 0.00 0.00 0.00 79 1023.0
20170430100358 45 309 2.0 7.0 0.00 0.00 0.00 79 1022.6
20170430095402 45 288 3.0 7.0 0.00 0.00 0.00 79 1022.2
20170430094403 45 310 2.0 6.0 0.00 0.00 0.00 79 1022.2
20170430093401 46 314 2.0 8.0 0.00 0.00 0.00 77 1021.9
20170430092403 45 293 2.0 6.0 0.00 0.00 0.00 77 1021.9
20170430091404 45 332 1.0 6.0 0.00 0.00 0.00 77 1021.9
20170430090359 46 267 0.0 1.0 0.00 0.00 0.00 75 1021.4
20170430085402 46 280 1.0 7.0 0.00 0.00 0.00 75 1021.4
20170430084403 46 321 2.0 8.0 0.00 0.00 0.00 75 1021.1
20170430083359 47 316 1.0 8.0 0.00 0.00 0.00 73 1021.4
20170430082401 47 323 2.0 10.0 0.00 0.00 0.00 73 1021.4
20170430081403 46 329 3.0 6.0 0.00 0.00 0.00 74 1021.6
20170430080400 47 99 0.0 0.0 0.00 0.00 0.00 72 1021.7
20170430075401 48 99 0.0 3.0 0.00 0.00 0.00 70 1021.4
20170430074414 48 329 1.0 9.0 0.00 0.00 0.00 68 1020.8
20170430073358 48 325 3.0 9.0 0.00 0.00 0.00 67 1020.7
20170430072401 48 335 5.0 9.0 0.00 0.00 0.00 67 1020.6
20170430071403 49 302 0.0 2.0 0.00 0.00 0.00 66 1021.0
20170430070400 49 286 1.0 8.0 0.00 0.00 0.00 63 1020.6
20170430065402 50 357 5.0 12.0 0.00 0.00 0.00 62 1020.6
20170430064406 50 348 2.0 9.0 0.00 0.00 0.00 62 1020.7
20170430063400 50 356 1.0 10.0 0.00 0.00 0.00 61 1020.8
20170430062402 51 33 0.0 9.0 0.00 0.00 0.00 61 1020.7
20170430061404 52 60 2.0 13.0 0.00 0.00 0.00 57 1020.4
20170430060400 52 323 3.0 12.0 0.00 0.00 0.00 55 1020.6
20170430055402 52 320 5.0 14.0 0.00 0.00 0.00 55 1020.2
20170430054404 53 316 5.0 16.0 0.00 0.00 0.00 54 1020.2
20170430053400 53 324 4.0 17.0 0.00 0.00 0.00 54 1020.0
20170430052401 54 298 5.0 16.0 0.00 0.00 0.00 56 1020.1
20170430051403 54 292 6.0 17.0 0.00 0.00 0.00 60 1019.9
20170430050359 54 303 6.0 14.0 0.00 0.00 0.00 62 1019.8
20170430045402 55 280 7.0 18.0 0.00 0.00 0.00 63 1019.8
20170430044404 55 313 5.0 15.0 0.00 0.00 0.00 64 1019.4
20170430043401 56 319 4.0 10.0 0.00 0.00 0.00 64 1019.6
20170430042403 56 303 5.0 17.0 0.00 0.00 0.00 64 1019.6
20170430041405 57 305 6.0 14.0 0.00 0.00 0.00 64 1019.3
20170430040401 58 324 5.0 12.0 0.00 0.00 0.00 63 1019.1
20170430035402 58 333 6.0 15.0 0.00 0.00 0.00 60 1018.9
20170430034404 58 300 7.0 15.0 0.00 0.00 0.00 55 1018.9
20170430033401 59 293 5.0 14.0 0.00 0.00 0.00 55 1018.6
20170430032402 59 295 5.0 15.0 0.00 0.00 0.00 57 1018.6
20170430031404 59 288 7.0 12.0 0.00 0.00 0.00 60 1018.5
20170430030400 59 278 5.0 14.0 0.00 0.00 0.00 64 1018.3
20170430025402 59 272 5.0 12.0 0.00 0.00 0.00 69 1018.4
20170430024403 59 261 6.0 10.0 0.00 0.00 0.00 71 1018.4
20170430023401 59 281 5.0 10.0 0.00 0.00 0.00 69 1018.3
20170430022402 60 281 6.0 13.0 0.00 0.00 0.00 68 1018.5
20170430021403 59 283 5.0 10.0 0.00 0.00 0.00 68 1018.6
20170430020401 60 295 5.0 15.0 0.00 0.00 0.00 66 1018.6
20170430015403 61 298 5.0 13.0 0.00 0.00 0.00 64 1018.6
20170430014404 61 339 1.0 7.0 0.00 0.00 0.00 66 1018.6
20170430013400 62 307 5.0 8.0 0.00 0.00 0.00 64 1018.7
20170430012402 62 293 3.0 10.0 0.00 0.00 0.00 64 1018.5
20170430011404 62 255 5.0 14.0 0.00 0.00 0.00 63 1018.2
20170430010400 63 296 5.0 13.0 0.00 0.00 0.00 63 1018.1
20170430005402 63 335 2.0 10.0 0.00 0.00 0.00 64 1017.8
20170430004404 63 298 5.0 10.0 0.00 0.00 0.00 64 1017.6
20170430003400 63 284 5.0 13.0 0.00 0.00 0.00 64 1017.4
20170430002402 63 291 6.0 17.0 0.00 0.00 0.00 66 1017.1
20170430001403 63 314 5.0 16.0 0.00 0.00 0.00 68 1017.0
20170430000400 64 282 3.0 14.0 0.00 0.00 0.00 68 1016.5
20170429235402 64 307 6.0 14.0 0.00 0.00 0.00 67 1016.4
20170429234404 65 297 4.0 10.0 0.00 0.00 0.00 67 1016.2
20170429233400 65 280 4.0 15.0 0.00 0.00 0.00 66 1015.8
20170429232402 66 292 6.0 15.0 0.00 0.00 0.00 64 1015.4
20170429231403 67 307 6.0 13.0 0.00 0.00 0.00 62 1015.4
20170429230400 68 299 6.0 16.0 0.00 0.00 0.00 62 1015.5
20170429225402 68 307 6.0 13.0 0.00 0.00 0.00 62 1015.0
20170429224404 68 333 4.0 10.0 0.00 0.00 0.00 61 1014.5
20170429223400 69 291 5.0 12.0 0.00 0.00 0.00 58 1014.3
20170429222401 70 314 3.0 23.0 0.00 0.00 0.00 57 1014.6
20170429221404 71 307 9.0 18.0 0.00 0.00 0.00 55 1014.8
20170429220400 71 293 6.0 16.0 0.00 0.00 0.00 54 1015.1
20170429215402 72 323 6.0 16.0 0.00 0.00 0.00 54 1015.0
20170429214404 73 311 7.0 14.0 0.00 0.00 0.00 50 1015.0
20170429213401 75 326 8.0 16.0 0.00 0.00 0.00 46 1014.5
20170429212402 76 321 5.0 13.0 0.00 0.00 0.00 45 1014.9
20170429211404 77 298 3.0 8.0 0.00 0.00 0.00 44 1014.4
20170429210402 79 270 6.0 14.0 0.00 0.00 0.00 42 1014.2
20170429205404 80 301 9.0 18.0 0.00 0.00 0.00 39 1013.9
20170429204406 81 297 8.0 15.0 0.00 0.00 0.00 40 1013.6
20170429203402 81 284 5.0 15.0 0.00 0.00 0.00 42 1013.2
20170429202403 80 268 7.0 15.0 0.00 0.00 0.00 43 1013.3
20170429201404 79 284 7.0 13.0 0.00 0.00 0.00 47 1013.3
20170429200401 79 274 9.0 17.0 0.00 0.00 0.00 47 1013.4
20170429195403 80 279 7.0 15.0 0.00 0.00 0.00 45 1013.1
20170429194403 80 255 7.0 16.0 0.00 0.00 0.00 44 1012.8
20170429193402 82 252 8.0 21.0 0.00 0.00 0.00 40 1012.6
20170429192403 82 270 6.0 23.0 0.00 0.00 0.00 42 1012.2
20170429191404 82 318 6.0 13.0 0.00 0.00 0.00 40 1012.4
20170429190402 82 266 7.0 15.0 0.00 0.00 0.00 42 1011.8
20170429185403 81 279 7.0 12.0 0.00 0.00 0.00 43 1012.0
20170429184404 82 269 6.0 13.0 0.00 0.00 0.00 44 1011.8